sensor_id;sensor_type;location;lat;lon;timestamp;pressure;altitude;pressure_sealevel;temperature;humidity
73862;BME280;63459;51.456;-0.916;2023-06-10T05:42:14;100766.38;;;34.22;16.50
73862;BME280;63459;51.456;-0.916;2023-06-10T05:44:39;100768.96;;;35.09;15.86
73862;BME280;63459;51.456;-0.916;2023-06-10T05:47:04;100763.65;;;35.21;15.42
73862;BME280;63459;51.456;-0.916;2023-06-10T05:49:30;100766.19;;;36.09;14.98
73862;BME280;63459;51.456;-0.916;2023-06-10T05:52:00;100766.25;;;36.04;14.63
73862;BME280;63459;51.456;-0.916;2023-06-10T05:56:45;100768.65;;;37.19;13.88
73862;BME280;63459;51.456;-0.916;2023-06-10T05:59:10;100768.17;;;37.06;13.53
73862;BME280;63459;51.456;-0.916;2023-06-10T06:01:36;100769.94;;;37.27;13.44
73862;BME280;63459;51.456;-0.916;2023-06-10T06:04:01;100768.64;;;36.98;13.30
73862;BME280;63459;51.456;-0.916;2023-06-10T06:06:27;100772.10;;;37.25;13.44
73862;BME280;63459;51.456;-0.916;2023-06-10T06:08:52;100774.74;;;37.24;13.41
73862;BME280;63459;51.456;-0.916;2023-06-10T06:11:23;100776.35;;;37.11;13.22
73862;BME280;63459;51.456;-0.916;2023-06-10T06:13:44;100772.96;;;37.19;13.40
73862;BME280;63459;51.456;-0.916;2023-06-10T06:16:09;100776.84;;;37.31;13.36
73862;BME280;63459;51.456;-0.916;2023-06-10T06:18:34;100777.01;;;37.65;13.06
73862;BME280;63459;51.456;-0.916;2023-06-10T06:21:00;100774.71;;;37.40;13.00
73862;BME280;63459;51.456;-0.916;2023-06-10T06:23:25;100775.39;;;37.53;12.97
73862;BME280;63459;51.456;-0.916;2023-06-10T06:25:50;100773.06;;;38.06;12.87
73862;BME280;63459;51.456;-0.916;2023-06-10T06:28:15;100767.04;;;38.17;12.72
73862;BME280;63459;51.456;-0.916;2023-06-10T06:30:41;100764.65;;;38.34;12.42
73862;BME280;63459;51.456;-0.916;2023-06-10T06:33:06;100764.53;;;38.61;12.26
73862;BME280;63459;51.456;-0.916;2023-06-10T06:35:32;100762.88;;;38.56;12.08
73862;BME280;63459;51.456;-0.916;2023-06-10T06:37:57;100766.64;;;39.21;12.04
73862;BME280;63459;51.456;-0.916;2023-06-10T06:40:22;100773.77;;;39.50;11.62
73862;BME280;63459;51.456;-0.916;2023-06-10T06:42:47;100777.24;;;39.26;11.72
73862;BME280;63459;51.456;-0.916;2023-06-10T06:45:12;100771.72;;;39.22;11.64
73862;BME280;63459;51.456;-0.916;2023-06-10T06:47:37;100769.82;;;39.37;11.62
73862;BME280;63459;51.456;-0.916;2023-06-10T06:50:03;100766.82;;;39.25;11.80
73862;BME280;63459;51.456;-0.916;2023-06-10T06:52:28;100763.76;;;39.18;11.75
73862;BME280;63459;51.456;-0.916;2023-06-10T06:54:58;100760.28;;;39.57;11.73
73862;BME280;63459;51.456;-0.916;2023-06-10T06:57:19;100758.54;;;39.29;11.64
73862;BME280;63459;51.456;-0.916;2023-06-10T06:59:45;100753.99;;;40.13;11.66
73862;BME280;63459;51.456;-0.916;2023-06-10T07:02:10;100755.88;;;39.93;11.45
73862;BME280;63459;51.456;-0.916;2023-06-10T07:04:35;100762.87;;;39.93;11.38
73862;BME280;63459;51.456;-0.916;2023-06-10T07:09:26;100758.84;;;39.55;11.52
73862;BME280;63459;51.456;-0.916;2023-06-10T07:11:52;100762.51;;;39.77;11.50
73862;BME280;63459;51.456;-0.916;2023-06-10T07:14:17;100766.25;;;39.57;11.49
73862;BME280;63459;51.456;-0.916;2023-06-10T07:16:42;100772.51;;;39.89;11.61
73862;BME280;63459;51.456;-0.916;2023-06-10T07:19:07;100776.34;;;39.50;11.71
73862;BME280;63459;51.456;-0.916;2023-06-10T07:21:34;100778.41;;;39.67;11.68
73862;BME280;63459;51.456;-0.916;2023-06-10T07:23:58;100773.75;;;39.46;11.76
73862;BME280;63459;51.456;-0.916;2023-06-10T07:26:24;100777.15;;;39.30;11.89
73862;BME280;63459;51.456;-0.916;2023-06-10T07:28:49;100770.71;;;38.95;12.01
73862;BME280;63459;51.456;-0.916;2023-06-10T07:31:14;100775.50;;;38.47;12.34
73862;BME280;63459;51.456;-0.916;2023-06-10T07:33:41;100777.29;;;38.12;12.56
73862;BME280;63459;51.456;-0.916;2023-06-10T07:36:05;100776.30;;;38.29;12.71
73862;BME280;63459;51.456;-0.916;2023-06-10T07:38:31;100782.76;;;37.78;12.94
73862;BME280;63459;51.456;-0.916;2023-06-10T07:40:56;100787.36;;;37.52;13.20
73862;BME280;63459;51.456;-0.916;2023-06-10T07:43:21;100780.15;;;37.63;13.43
73862;BME280;63459;51.456;-0.916;2023-06-10T07:45:46;100777.01;;;37.42;13.58
73862;BME280;63459;51.456;-0.916;2023-06-10T07:48:12;100775.89;;;37.34;13.65
73862;BME280;63459;51.456;-0.916;2023-06-10T07:50:37;100776.45;;;37.01;13.76
73862;BME280;63459;51.456;-0.916;2023-06-10T07:53:03;100772.80;;;36.95;13.84
73862;BME280;63459;51.456;-0.916;2023-06-10T07:55:28;100775.46;;;36.85;13.89
73862;BME280;63459;51.456;-0.916;2023-06-10T07:57:54;100771.81;;;37.06;14.14
73862;BME280;63459;51.456;-0.916;2023-06-10T08:00:19;100772.69;;;37.01;14.25
73862;BME280;63459;51.456;-0.916;2023-06-10T08:02:44;100774.85;;;36.88;14.35
73862;BME280;63459;51.456;-0.916;2023-06-10T08:05:14;100784.10;;;36.36;14.41
73862;BME280;63459;51.456;-0.916;2023-06-10T08:07:40;100779.45;;;36.55;14.40
73862;BME280;63459;51.456;-0.916;2023-06-10T08:10:01;100782.61;;;36.68;14.49
73862;BME280;63459;51.456;-0.916;2023-06-10T08:12:36;100775.18;;;36.24;14.58
73862;BME280;63459;51.456;-0.916;2023-06-10T08:14:52;100777.44;;;36.86;14.72
73862;BME280;63459;51.456;-0.916;2023-06-10T08:17:22;100779.25;;;36.41;14.74
73862;BME280;63459;51.456;-0.916;2023-06-10T08:19:43;100778.91;;;36.21;14.73
73862;BME280;63459;51.456;-0.916;2023-06-10T08:22:08;100780.47;;;36.41;14.79
73862;BME280;63459;51.456;-0.916;2023-06-10T08:24:34;100778.14;;;36.52;14.75
73862;BME280;63459;51.456;-0.916;2023-06-10T08:26:59;100781.38;;;35.91;14.77
73862;BME280;63459;51.456;-0.916;2023-06-10T08:29:30;100781.75;;;36.57;14.73
73862;BME280;63459;51.456;-0.916;2023-06-10T08:31:50;100783.99;;;36.56;14.71
73862;BME280;63459;51.456;-0.916;2023-06-10T08:34:15;100786.36;;;36.58;14.64
73862;BME280;63459;51.456;-0.916;2023-06-10T08:36:41;100785.35;;;36.58;14.67
73862;BME280;63459;51.456;-0.916;2023-06-10T08:39:06;100785.44;;;36.91;14.67
73862;BME280;63459;51.456;-0.916;2023-06-10T08:41:35;100784.38;;;36.77;14.69
73862;BME280;63459;51.456;-0.916;2023-06-10T08:44:08;100788.24;;;36.82;14.65
73862;BME280;63459;51.456;-0.916;2023-06-10T08:46:23;100779.30;;;37.09;14.67
73862;BME280;63459;51.456;-0.916;2023-06-10T08:48:52;100783.66;;;37.15;14.66
73862;BME280;63459;51.456;-0.916;2023-06-10T08:51:13;100789.59;;;36.80;14.76
73862;BME280;63459;51.456;-0.916;2023-06-10T08:53:45;100783.39;;;37.01;14.78
73862;BME280;63459;51.456;-0.916;2023-06-10T08:56:05;100785.39;;;36.51;14.80
73862;BME280;63459;51.456;-0.916;2023-06-10T08:58:29;100785.57;;;36.64;14.90
73862;BME280;63459;51.456;-0.916;2023-06-10T09:00:54;100790.66;;;35.91;15.02
73862;BME280;63459;51.456;-0.916;2023-06-10T09:03:21;100791.71;;;36.55;14.97
73862;BME280;63459;51.456;-0.916;2023-06-10T09:05:45;100791.80;;;36.31;14.97
73862;BME280;63459;51.456;-0.916;2023-06-10T09:08:11;100790.32;;;36.42;15.09
73862;BME280;63459;51.456;-0.916;2023-06-10T09:13:01;100783.84;;;36.44;15.20
73862;BME280;63459;51.456;-0.916;2023-06-10T09:15:31;100786.65;;;36.53;15.14
73862;BME280;63459;51.456;-0.916;2023-06-10T09:17:51;100790.36;;;36.33;15.04
73862;BME280;63459;51.456;-0.916;2023-06-10T09:20:18;100786.74;;;36.17;15.06
73862;BME280;63459;51.456;-0.916;2023-06-10T09:22:43;100785.02;;;36.40;15.17
73862;BME280;63459;51.456;-0.916;2023-06-10T09:25:10;100785.18;;;36.33;15.32
73862;BME280;63459;51.456;-0.916;2023-06-10T09:27:43;100781.45;;;36.02;15.28
73862;BME280;63459;51.456;-0.916;2023-06-10T09:29:59;100779.23;;;36.86;15.22
73862;BME280;63459;51.456;-0.916;2023-06-10T09:32:30;100778.70;;;36.89;15.03
73862;BME280;63459;51.456;-0.916;2023-06-10T09:34:50;100773.00;;;36.77;14.98
73862;BME280;63459;51.456;-0.916;2023-06-10T09:37:21;100776.45;;;37.15;14.92
73862;BME280;63459;51.456;-0.916;2023-06-10T09:39:41;100776.85;;;37.47;14.82
73862;BME280;63459;51.456;-0.916;2023-06-10T09:42:15;100780.84;;;37.18;14.78
73862;BME280;63459;51.456;-0.916;2023-06-10T09:44:32;100780.36;;;37.09;14.79
73862;BME280;63459;51.456;-0.916;2023-06-10T09:46:57;100780.03;;;37.16;14.78
73862;BME280;63459;51.456;-0.916;2023-06-10T09:49:22;100773.88;;;37.21;14.74
73862;BME280;63459;51.456;-0.916;2023-06-10T09:54:13;100774.18;;;37.35;14.64
73862;BME280;63459;51.456;-0.916;2023-06-10T09:56:38;100771.02;;;37.67;14.58
73862;BME280;63459;51.456;-0.916;2023-06-10T09:59:04;100771.40;;;37.66;14.58
73862;BME280;63459;51.456;-0.916;2023-06-10T10:01:30;100772.00;;;37.34;14.64
73862;BME280;63459;51.456;-0.916;2023-06-10T10:03:54;100772.21;;;37.68;14.60
73862;BME280;63459;51.456;-0.916;2023-06-10T10:06:20;100767.76;;;37.78;14.48
73862;BME280;63459;51.456;-0.916;2023-06-10T10:08:47;100772.66;;;37.67;14.40
73862;BME280;63459;51.456;-0.916;2023-06-10T10:11:11;100772.63;;;37.54;14.37
73862;BME280;63459;51.456;-0.916;2023-06-10T10:13:37;100769.54;;;37.58;14.35
73862;BME280;63459;51.456;-0.916;2023-06-10T10:16:09;100764.68;;;37.65;14.34
73862;BME280;63459;51.456;-0.916;2023-06-10T10:18:29;100767.95;;;38.18;14.27
73862;BME280;63459;51.456;-0.916;2023-06-10T10:20:53;100769.09;;;37.89;14.48
73862;BME280;63459;51.456;-0.916;2023-06-10T10:23:23;100762.40;;;37.97;14.38
73862;BME280;63459;51.456;-0.916;2023-06-10T10:25:44;100760.51;;;38.07;14.34
73862;BME280;63459;51.456;-0.916;2023-06-10T10:28:11;100762.93;;;38.19;14.34
73862;BME280;63459;51.456;-0.916;2023-06-10T10:30:39;100764.72;;;38.31;14.30
73862;BME280;63459;51.456;-0.916;2023-06-10T10:33:04;100761.81;;;38.22;14.14
73862;BME280;63459;51.456;-0.916;2023-06-10T10:35:25;100758.49;;;38.42;14.25
73862;BME280;63459;51.456;-0.916;2023-06-10T10:37:52;100759.80;;;37.96;14.31
73862;BME280;63459;51.456;-0.916;2023-06-10T10:40:16;100758.45;;;37.96;14.23
73862;BME280;63459;51.456;-0.916;2023-06-10T10:42:41;100760.75;;;37.64;14.24
73862;BME280;63459;51.456;-0.916;2023-06-10T10:45:09;100757.57;;;38.01;14.17
73862;BME280;63459;51.456;-0.916;2023-06-10T10:47:33;100753.60;;;38.54;14.14
73862;BME280;63459;51.456;-0.916;2023-06-10T10:49:58;100749.89;;;38.33;13.91
73862;BME280;63459;51.456;-0.916;2023-06-10T10:52:23;100754.08;;;38.43;13.97
73862;BME280;63459;51.456;-0.916;2023-06-10T10:54:48;100754.12;;;38.33;13.94
73862;BME280;63459;51.456;-0.916;2023-06-10T10:57:16;100746.69;;;39.10;13.77
73862;BME280;63459;51.456;-0.916;2023-06-10T10:59:44;100748.21;;;38.75;13.67
73862;BME280;63459;51.456;-0.916;2023-06-10T11:02:04;100750.13;;;38.57;13.69
73862;BME280;63459;51.456;-0.916;2023-06-10T11:04:30;100741.83;;;38.85;13.82
73862;BME280;63459;51.456;-0.916;2023-06-10T11:09:27;100737.71;;;38.68;13.27
73862;BME280;63459;51.456;-0.916;2023-06-10T11:11:49;100737.26;;;38.57;13.19
73862;BME280;63459;51.456;-0.916;2023-06-10T11:16:39;100734.75;;;38.67;13.22
73862;BME280;63459;51.456;-0.916;2023-06-10T11:19:02;100735.16;;;39.21;13.15
73862;BME280;63459;51.456;-0.916;2023-06-10T11:23:54;100736.34;;;39.21;12.80
73862;BME280;63459;51.456;-0.916;2023-06-10T11:26:29;100726.83;;;39.29;12.81
73862;BME280;63459;51.456;-0.916;2023-06-10T11:31:18;100721.89;;;39.40;12.66
73862;BME280;63459;51.456;-0.916;2023-06-10T11:33:38;100718.04;;;39.09;12.65
73862;BME280;63459;51.456;-0.916;2023-06-10T11:36:01;100722.12;;;39.64;12.65
73862;BME280;63459;51.456;-0.916;2023-06-10T11:38:26;100720.01;;;39.70;12.51
73862;BME280;63459;51.456;-0.916;2023-06-10T11:40:52;100712.34;;;40.23;12.43
73862;BME280;63459;51.456;-0.916;2023-06-10T11:43:17;100719.71;;;40.12;12.35
73862;BME280;63459;51.456;-0.916;2023-06-10T11:45:43;100720.77;;;39.99;12.28
73862;BME280;63459;51.456;-0.916;2023-06-10T11:48:09;100718.99;;;40.10;12.09
73862;BME280;63459;51.456;-0.916;2023-06-10T11:50:33;100716.11;;;40.00;11.91
73862;BME280;63459;51.456;-0.916;2023-06-10T11:55:24;100714.01;;;39.94;11.73
73862;BME280;63459;51.456;-0.916;2023-06-10T11:57:49;100716.43;;;40.43;11.69
73862;BME280;63459;51.456;-0.916;2023-06-10T12:00:16;100713.65;;;40.22;11.54
73862;BME280;63459;51.456;-0.916;2023-06-10T12:02:40;100714.57;;;39.82;11.57
73862;BME280;63459;51.456;-0.916;2023-06-10T12:05:10;100711.47;;;40.08;11.54
73862;BME280;63459;51.456;-0.916;2023-06-10T12:07:31;100702.84;;;40.14;11.50
73862;BME280;63459;51.456;-0.916;2023-06-10T12:12:21;100705.32;;;40.32;11.33
73862;BME280;63459;51.456;-0.916;2023-06-10T12:14:51;100702.18;;;40.43;11.29
73862;BME280;63459;51.456;-0.916;2023-06-10T12:17:11;100702.75;;;40.66;11.19
73862;BME280;63459;51.456;-0.916;2023-06-10T12:19:38;100689.90;;;40.27;11.22
73862;BME280;63459;51.456;-0.916;2023-06-10T12:22:02;100689.28;;;40.60;11.32
73862;BME280;63459;51.456;-0.916;2023-06-10T12:24:28;100686.69;;;40.42;11.27
73862;BME280;63459;51.456;-0.916;2023-06-10T12:26:53;100687.06;;;40.29;11.32
73862;BME280;63459;51.456;-0.916;2023-06-10T12:29:19;100687.97;;;40.87;11.26
73862;BME280;63459;51.456;-0.916;2023-06-10T12:34:09;100685.05;;;40.69;11.12
73862;BME280;63459;51.456;-0.916;2023-06-10T12:36:36;100686.42;;;41.16;11.16
73862;BME280;63459;51.456;-0.916;2023-06-10T12:39:02;100684.57;;;40.97;11.05
73862;BME280;63459;51.456;-0.916;2023-06-10T12:41:28;100678.15;;;40.81;11.05
73862;BME280;63459;51.456;-0.916;2023-06-10T12:43:51;100677.38;;;40.92;11.03
73862;BME280;63459;51.456;-0.916;2023-06-10T12:46:16;100672.70;;;40.94;11.12
73862;BME280;63459;51.456;-0.916;2023-06-10T12:48:50;100669.43;;;41.05;11.11
73862;BME280;63459;51.456;-0.916;2023-06-10T12:51:07;100665.47;;;40.91;11.02
73862;BME280;63459;51.456;-0.916;2023-06-10T12:53:32;100659.01;;;41.65;11.05
73862;BME280;63459;51.456;-0.916;2023-06-10T12:55:58;100651.89;;;41.33;11.05
73862;BME280;63459;51.456;-0.916;2023-06-10T12:58:23;100659.12;;;41.01;10.93
73862;BME280;63459;51.456;-0.916;2023-06-10T13:00:49;100651.62;;;41.33;10.96
73862;BME280;63459;51.456;-0.916;2023-06-10T13:03:14;100652.42;;;41.73;10.78
73862;BME280;63459;51.456;-0.916;2023-06-10T13:08:05;100646.94;;;41.85;10.20
73862;BME280;63459;51.456;-0.916;2023-06-10T13:10:30;100636.46;;;41.88;9.56
73862;BME280;63459;51.456;-0.916;2023-06-10T13:12:55;100645.93;;;42.34;9.24
73862;BME280;63459;51.456;-0.916;2023-06-10T13:15:20;100639.85;;;42.40;8.80
73862;BME280;63459;51.456;-0.916;2023-06-10T13:17:46;100635.62;;;41.73;8.61
73862;BME280;63459;51.456;-0.916;2023-06-10T13:20:11;100635.42;;;42.24;8.03
73862;BME280;63459;51.456;-0.916;2023-06-10T13:22:36;100634.30;;;42.49;8.20
73862;BME280;63459;51.456;-0.916;2023-06-10T13:25:02;100639.26;;;42.35;8.45
73862;BME280;63459;51.456;-0.916;2023-06-10T13:27:27;100634.75;;;42.87;8.56
73862;BME280;63459;51.456;-0.916;2023-06-10T13:29:52;100622.48;;;42.54;8.58
73862;BME280;63459;51.456;-0.916;2023-06-10T13:34:44;100627.86;;;42.59;8.83
73862;BME280;63459;51.456;-0.916;2023-06-10T13:37:08;100629.68;;;42.98;8.92
73862;BME280;63459;51.456;-0.916;2023-06-10T13:39:34;100625.28;;;42.77;9.02
73862;BME280;63459;51.456;-0.916;2023-06-10T13:41:59;100620.29;;;43.06;9.09
73862;BME280;63459;51.456;-0.916;2023-06-10T13:44:25;100625.02;;;43.26;9.08
73862;BME280;63459;51.456;-0.916;2023-06-10T13:46:50;100622.81;;;43.21;8.87
73862;BME280;63459;51.456;-0.916;2023-06-10T13:49:15;100627.00;;;42.27;8.78
73862;BME280;63459;51.456;-0.916;2023-06-10T13:51:41;100626.80;;;42.62;8.78
73862;BME280;63459;51.456;-0.916;2023-06-10T13:54:07;100628.59;;;42.61;8.86
73862;BME280;63459;51.456;-0.916;2023-06-10T13:56:30;100629.41;;;42.16;8.86
73862;BME280;63459;51.456;-0.916;2023-06-10T13:58:57;100627.37;;;42.82;8.91
73862;BME280;63459;51.456;-0.916;2023-06-10T14:01:21;100623.78;;;42.39;8.96
73862;BME280;63459;51.456;-0.916;2023-06-10T14:03:47;100623.32;;;42.84;8.98
73862;BME280;63459;51.456;-0.916;2023-06-10T14:06:12;100629.72;;;42.86;8.84
73862;BME280;63459;51.456;-0.916;2023-06-10T14:08:38;100628.18;;;42.65;8.60
73862;BME280;63459;51.456;-0.916;2023-06-10T14:11:08;100624.90;;;42.90;8.50
73862;BME280;63459;51.456;-0.916;2023-06-10T14:13:29;100619.54;;;42.49;8.47
73862;BME280;63459;51.456;-0.916;2023-06-10T14:18:19;100617.83;;;42.91;8.37
73862;BME280;63459;51.456;-0.916;2023-06-10T14:20:45;100617.55;;;42.90;8.23
73862;BME280;63459;51.456;-0.916;2023-06-10T14:23:11;100620.63;;;42.87;8.21
73862;BME280;63459;51.456;-0.916;2023-06-10T14:25:35;100610.55;;;42.85;8.06
73862;BME280;63459;51.456;-0.916;2023-06-10T14:28:00;100613.57;;;42.60;7.99
73862;BME280;63459;51.456;-0.916;2023-06-10T14:30:25;100612.46;;;42.74;8.01
73862;BME280;63459;51.456;-0.916;2023-06-10T14:32:51;100614.49;;;42.45;8.04
73862;BME280;63459;51.456;-0.916;2023-06-10T14:35:16;100613.88;;;42.75;7.94
73862;BME280;63459;51.456;-0.916;2023-06-10T14:37:41;100614.80;;;42.42;7.99
73862;BME280;63459;51.456;-0.916;2023-06-10T14:40:07;100618.05;;;42.08;7.97
73862;BME280;63459;51.456;-0.916;2023-06-10T14:42:31;100617.99;;;42.41;7.92
73862;BME280;63459;51.456;-0.916;2023-06-10T14:44:56;100613.45;;;42.62;7.88
73862;BME280;63459;51.456;-0.916;2023-06-10T14:47:22;100621.05;;;42.46;7.96
73862;BME280;63459;51.456;-0.916;2023-06-10T14:49:47;100611.97;;;42.49;8.08
73862;BME280;63459;51.456;-0.916;2023-06-10T14:52:13;100612.57;;;42.53;8.14
73862;BME280;63459;51.456;-0.916;2023-06-10T14:54:38;100612.34;;;42.16;8.16
73862;BME280;63459;51.456;-0.916;2023-06-10T14:57:04;100614.62;;;42.47;8.07
73862;BME280;63459;51.456;-0.916;2023-06-10T14:59:28;100606.41;;;42.53;8.08
73862;BME280;63459;51.456;-0.916;2023-06-10T15:01:53;100607.88;;;42.80;8.08
73862;BME280;63459;51.456;-0.916;2023-06-10T15:04:19;100599.93;;;42.85;8.01
73862;BME280;63459;51.456;-0.916;2023-06-10T15:06:44;100606.89;;;42.88;7.69
73862;BME280;63459;51.456;-0.916;2023-06-10T15:09:09;100603.65;;;42.42;7.65
73862;BME280;63459;51.456;-0.916;2023-06-10T15:11:34;100602.97;;;42.19;7.56
73862;BME280;63459;51.456;-0.916;2023-06-10T15:13:59;100604.73;;;42.79;7.61
73862;BME280;63459;51.456;-0.916;2023-06-10T15:16:25;100609.33;;;42.30;7.54
73862;BME280;63459;51.456;-0.916;2023-06-10T15:18:51;100605.40;;;42.21;7.61
73862;BME280;63459;51.456;-0.916;2023-06-10T15:21:16;100606.37;;;42.29;7.71
73862;BME280;63459;51.456;-0.916;2023-06-10T15:23:41;100602.18;;;42.45;7.79
73862;BME280;63459;51.456;-0.916;2023-06-10T15:26:06;100602.86;;;42.18;7.83
73862;BME280;63459;51.456;-0.916;2023-06-10T15:28:32;100597.06;;;42.59;7.87
73862;BME280;63459;51.456;-0.916;2023-06-10T15:30:57;100591.97;;;42.41;7.89
73862;BME280;63459;51.456;-0.916;2023-06-10T15:33:22;100603.26;;;42.66;7.87
73862;BME280;63459;51.456;-0.916;2023-06-10T15:35:47;100600.79;;;42.44;7.84
73862;BME280;63459;51.456;-0.916;2023-06-10T15:38:13;100598.15;;;42.48;7.77
73862;BME280;63459;51.456;-0.916;2023-06-10T15:40:37;100602.30;;;42.27;7.80
73862;BME280;63459;51.456;-0.916;2023-06-10T15:43:03;100602.07;;;42.07;7.81
73862;BME280;63459;51.456;-0.916;2023-06-10T15:45:28;100600.88;;;42.50;7.78
73862;BME280;63459;51.456;-0.916;2023-06-10T15:47:53;100603.50;;;42.31;7.74
73862;BME280;63459;51.456;-0.916;2023-06-10T15:50:19;100602.30;;;42.56;7.67
73862;BME280;63459;51.456;-0.916;2023-06-10T15:52:44;100601.60;;;42.62;7.64
73862;BME280;63459;51.456;-0.916;2023-06-10T15:55:09;100608.60;;;42.70;7.55
73862;BME280;63459;51.456;-0.916;2023-06-10T15:57:34;100607.96;;;42.33;7.52
73862;BME280;63459;51.456;-0.916;2023-06-10T16:00:00;100607.96;;;42.54;7.84
73862;BME280;63459;51.456;-0.916;2023-06-10T16:04:50;100609.19;;;42.61;9.24
73862;BME280;63459;51.456;-0.916;2023-06-10T16:07:17;100608.33;;;42.48;9.58
73862;BME280;63459;51.456;-0.916;2023-06-10T16:09:41;100614.39;;;41.99;9.68
73862;BME280;63459;51.456;-0.916;2023-06-10T16:14:32;100600.18;;;42.02;9.92
73862;BME280;63459;51.456;-0.916;2023-06-10T16:19:22;100607.12;;;41.88;9.84
73862;BME280;63459;51.456;-0.916;2023-06-10T16:21:48;100602.80;;;42.06;9.86
73862;BME280;63459;51.456;-0.916;2023-06-10T16:24:13;100600.93;;;41.78;9.92
73862;BME280;63459;51.456;-0.916;2023-06-10T16:26:39;100601.77;;;41.45;9.92
73862;BME280;63459;51.456;-0.916;2023-06-10T16:31:30;100603.15;;;42.00;9.95
73862;BME280;63459;51.456;-0.916;2023-06-10T16:33:55;100599.39;;;42.12;10.00
73862;BME280;63459;51.456;-0.916;2023-06-10T16:36:21;100606.82;;;41.84;10.05
73862;BME280;63459;51.456;-0.916;2023-06-10T16:38:46;100609.28;;;42.01;10.11
73862;BME280;63459;51.456;-0.916;2023-06-10T16:41:11;100611.77;;;41.90;10.16
73862;BME280;63459;51.456;-0.916;2023-06-10T16:43:37;100612.04;;;41.63;10.21
73862;BME280;63459;51.456;-0.916;2023-06-10T16:46:02;100612.17;;;41.55;10.30
73862;BME280;63459;51.456;-0.916;2023-06-10T16:48:28;100615.90;;;41.10;10.35
73862;BME280;63459;51.456;-0.916;2023-06-10T16:50:52;100618.26;;;41.70;10.36
73862;BME280;63459;51.456;-0.916;2023-06-10T16:53:17;100620.29;;;41.44;10.40
73862;BME280;63459;51.456;-0.916;2023-06-10T16:55:42;100618.48;;;41.39;10.44
73862;BME280;63459;51.456;-0.916;2023-06-10T16:58:07;100622.19;;;41.34;10.46
73862;BME280;63459;51.456;-0.916;2023-06-10T17:00:34;100623.68;;;41.31;10.47
73862;BME280;63459;51.456;-0.916;2023-06-10T17:03:00;100620.66;;;41.23;10.52
73862;BME280;63459;51.456;-0.916;2023-06-10T17:05:24;100624.83;;;41.46;10.43
73862;BME280;63459;51.456;-0.916;2023-06-10T17:07:50;100622.05;;;40.77;10.30
73862;BME280;63459;51.456;-0.916;2023-06-10T17:10:15;100624.59;;;41.33;10.11
73862;BME280;63459;51.456;-0.916;2023-06-10T17:12:40;100632.20;;;41.24;10.08
73862;BME280;63459;51.456;-0.916;2023-06-10T17:15:06;100633.26;;;41.58;10.03
73862;BME280;63459;51.456;-0.916;2023-06-10T17:17:31;100635.53;;;40.85;9.99
73862;BME280;63459;51.456;-0.916;2023-06-10T17:19:57;100637.37;;;41.23;9.94
73862;BME280;63459;51.456;-0.916;2023-06-10T17:22:22;100633.51;;;41.36;10.04
73862;BME280;63459;51.456;-0.916;2023-06-10T17:24:48;100631.71;;;40.41;10.18
73862;BME280;63459;51.456;-0.916;2023-06-10T17:27:13;100638.00;;;40.78;10.44
73862;BME280;63459;51.456;-0.916;2023-06-10T17:29:39;100641.05;;;40.94;10.63
73862;BME280;63459;51.456;-0.916;2023-06-10T17:34:29;100639.65;;;40.82;11.00
73862;BME280;63459;51.456;-0.916;2023-06-10T17:36:54;100648.22;;;40.96;11.34
73862;BME280;63459;51.456;-0.916;2023-06-10T17:39:20;100651.09;;;40.46;11.43
73862;BME280;63459;51.456;-0.916;2023-06-10T17:41:45;100648.90;;;40.42;11.49
73862;BME280;63459;51.456;-0.916;2023-06-10T17:46:36;100656.47;;;40.38;11.60
73862;BME280;63459;51.456;-0.916;2023-06-10T17:51:26;100666.85;;;40.70;11.65
73862;BME280;63459;51.456;-0.916;2023-06-10T17:53:51;100666.13;;;40.43;11.68
73862;BME280;63459;51.456;-0.916;2023-06-10T17:56:17;100668.86;;;40.61;11.73
73862;BME280;63459;51.456;-0.916;2023-06-10T17:58:42;100674.05;;;40.15;11.75
73862;BME280;63459;51.456;-0.916;2023-06-10T18:01:07;100672.38;;;40.56;11.78
73862;BME280;63459;51.456;-0.916;2023-06-10T18:03:32;100673.97;;;40.38;11.78
73862;BME280;63459;51.456;-0.916;2023-06-10T18:08:23;100683.06;;;40.34;11.74
73862;BME280;63459;51.456;-0.916;2023-06-10T18:10:48;100681.19;;;40.27;11.75
73862;BME280;63459;51.456;-0.916;2023-06-10T18:13:16;100679.90;;;40.00;11.78
73862;BME280;63459;51.456;-0.916;2023-06-10T18:15:39;100682.20;;;39.71;11.82
73862;BME280;63459;51.456;-0.916;2023-06-10T18:18:05;100684.55;;;40.07;11.87
73862;BME280;63459;51.456;-0.916;2023-06-10T18:20:30;100687.60;;;40.00;11.88
73862;BME280;63459;51.456;-0.916;2023-06-10T18:22:56;100685.33;;;39.45;11.91
73862;BME280;63459;51.456;-0.916;2023-06-10T18:25:21;100687.44;;;40.42;11.94
73862;BME280;63459;51.456;-0.916;2023-06-10T18:27:47;100689.56;;;40.12;11.95
73862;BME280;63459;51.456;-0.916;2023-06-10T18:30:12;100689.96;;;39.82;11.98
73862;BME280;63459;51.456;-0.916;2023-06-10T18:32:38;100691.46;;;39.76;11.99
73862;BME280;63459;51.456;-0.916;2023-06-10T18:35:03;100695.56;;;39.69;12.03
73862;BME280;63459;51.456;-0.916;2023-06-10T18:37:28;100698.48;;;39.42;12.06
73862;BME280;63459;51.456;-0.916;2023-06-10T18:39:54;100700.14;;;39.76;12.10
73862;BME280;63459;51.456;-0.916;2023-06-10T18:42:19;100703.45;;;39.71;12.07
73862;BME280;63459;51.456;-0.916;2023-06-10T18:44:44;100702.07;;;39.40;12.15
73862;BME280;63459;51.456;-0.916;2023-06-10T18:47:10;100705.27;;;39.74;12.19
73862;BME280;63459;51.456;-0.916;2023-06-10T18:49:35;100710.07;;;38.84;12.21
73862;BME280;63459;51.456;-0.916;2023-06-10T18:52:00;100711.17;;;39.45;12.24
73862;BME280;63459;51.456;-0.916;2023-06-10T18:54:26;100712.18;;;39.33;12.31
73862;BME280;63459;51.456;-0.916;2023-06-10T18:56:53;100714.66;;;39.46;12.35
73862;BME280;63459;51.456;-0.916;2023-06-10T18:59:17;100717.25;;;39.14;12.41
73862;BME280;63459;51.456;-0.916;2023-06-10T19:01:43;100722.35;;;39.53;12.44
73862;BME280;63459;51.456;-0.916;2023-06-10T19:04:14;100724.53;;;39.53;12.44
73862;BME280;63459;51.456;-0.916;2023-06-10T19:06:40;100727.97;;;39.34;12.46